Aérodrome :
LOGIN :

S'inscrire | Disclaimer

   EN    FR    IT 

 










Légende :    VFR   VFR Marginal   IFR   IFR Intensif   IFR Très Intensif
Visi : 
Plafond : 
>= 8 km
>= 3000ft
5 à 8 km
1000 à 3000 ft
1500m à 5 km
500 à 1000 ft
800 à 1500m
200 à 500 ft
< 800m
< 200 ft
Symboles :   Orages  Brouillard  Fortes neiges  Fortes précipitations  Vent > 20 kt
SIGMETs :   Divers  Orages  Givrage  Turbulence  Onde Orograph.  Cendres Volcan.







- Altitude de l'aérodrome : 1411 ft
- Code IATA : GVA


LSGG - Genève Cointrin

DERNIER METAR :
  • 011720Z 24011KT 9999 RA FEW020 BKN030 06/04 Q1014 NOSIG

METARs EXPIRÉS :
  • 011650Z 24012KT 9999 RA FEW020 BKN030 06/04 Q1014 NOSIG
  • 011620Z 24014KT 9999 RA FEW020 BKN030 06/04 Q1014 NOSIG
  • 011550Z 23018KT 8000 RA FEW020 SCT030 BKN045 07/03 Q1014 NOSIG
  • 011520Z 24017KT 9999 -RA FEW020 SCT030 BKN050 08/03 Q1014 NOSIG
  • 011450Z 22016KT 9999 FEW020 SCT030 BKN060 08/02 Q1013 NOSIG

TAF TAF LSGG
Valide du 01 à 18h jusqu'au 03 à 00h UTC


011725Z 0118/0224 24012G25KT 8000 RA FEW010 SCT020 BKN030 TX12/0215Z TN03/0206Z
BECMG 0121/0123 23010KT
BECMG 0206/0208 NSW
BECMG 0214/0216 VRB03KT
ATIS : +41 22 417 40 81
Pas de NOTAMs connus pour ce terrain.



MET'MAP, la Météo Aéronautique d'un coup d'oeil ! - Copyright ORBIFLY Décembre 2007 - Disclaimer

ORBIFLY MET'MAP TEAM :

Programmation & Développement : Alexandra Zaïnal
Conception & Développement : Baudouin d'Aumeries
Co-Programmation & Développement : Marc-Olivier Méhu
Soutien technique & logistique : Manuel Goepfert

Contact : metmap@orbifly.com




SOURCES & CREDITS :

   NOAA